الصفحة الرئيسية
METAR-TAF:

METAR-TAF

مطار :

مطار ميتشيل رومان الدولي

كورور, Babeldaob, بالاو

دائرة عرض: 07-22N, خط طول: 134-32E, ارتفاع: 54 متر

مراقبة الطقس الحالي

تاريخ ووقت الإصدار 53 دقيقة قبل الساعة 13:50UTC
ريح 7 عقدة من الجنوب الغربي
درجة الحرارة 27°درجة مئوية
الرطوبة 84%
ضغط 1009 hPa
الرؤية: 22.5 كم
غيوم متفرقة على ارتفاع 1600 قدم
غيوم مفككة على ارتفاع 12000 قدم
غيوم مفككة على ارتفاع 30000 قدم

METAR: PTRO 171350Z 23007KT 14SM SCT016 BKN120 BKN300 27/24 A2979

زمن: 23:43 (14:43 UTC)

توقعات

تاريخ ووقت الإصدار 3ساعات و 23 دقيقة قبل الساعة 11:20UTC
التوقعات صالحة من17 الساعة 12 UTC إلى 18 الساعة 12 UTC
ريح 10 عقدة من الغرب
الرؤية: 10 كم
غيوم متفرقة على ارتفاع 1600 قدم
غيوم مفككة على ارتفاع 11000 قدم
ملبد بالغيوم على ارتفاع 29000 قدم
زخات في الجوار

TAF: PTRO 171120Z 1712/1812 26010KT P6SM VCSH SCT016 BKN110 OVC290

أرصاد الطقس والتوقعات من أكثر من 4000 مطار (تقارير الطقس للمطار METAR والتنبؤ بالطقس بالمطارTAF).

المحطات المتاحة هي النقط الصفراء والحمراء على الخريطة.

حرك المؤشر فوق النقطة لمعرفة اسم المحطة.

ثم انقر لمعرفة أرصاد وتوقعات الطقس.

لتغيير الخارطة: اضغط على الأزرار الخضراء مع رمز الصليب الأسود للتكبير. على الزر الأخضر مع شرطة للتصغير، أو على الأسهم الخضراء للخرائط المجاورة.


METAR-TAF: